sensor_id;sensor_type;location;lat;lon;timestamp;pressure;altitude;pressure_sealevel;temperature;humidity
52745;BME280;38637;49.984;20.426;2023-06-05T00:01:50;99878.91;;;11.15;78.03
52745;BME280;38637;49.984;20.426;2023-06-05T00:04:16;99874.50;;;11.14;77.53
52745;BME280;38637;49.984;20.426;2023-06-05T00:06:41;99877.81;;;11.16;77.12
52745;BME280;38637;49.984;20.426;2023-06-05T00:09:07;99870.69;;;11.15;76.97
52745;BME280;38637;49.984;20.426;2023-06-05T00:11:33;99871.00;;;11.18;76.53
52745;BME280;38637;49.984;20.426;2023-06-05T00:13:58;99873.25;;;11.21;76.04
52745;BME280;38637;49.984;20.426;2023-06-05T00:16:23;99872.66;;;11.19;75.85
52745;BME280;38637;49.984;20.426;2023-06-05T00:18:48;99865.53;;;11.18;75.77
52745;BME280;38637;49.984;20.426;2023-06-05T00:21:14;99864.13;;;11.16;75.81
52745;BME280;38637;49.984;20.426;2023-06-05T00:23:40;99870.94;;;11.13;75.73
52745;BME280;38637;49.984;20.426;2023-06-05T00:26:05;99864.66;;;11.13;75.27
52745;BME280;38637;49.984;20.426;2023-06-05T00:28:31;99873.34;;;11.10;75.18
52745;BME280;38637;49.984;20.426;2023-06-05T00:30:57;99862.91;;;11.07;74.84
52745;BME280;38637;49.984;20.426;2023-06-05T00:33:22;99871.03;;;11.01;75.13
52745;BME280;38637;49.984;20.426;2023-06-05T00:35:47;99861.38;;;10.94;76.04
52745;BME280;38637;49.984;20.426;2023-06-05T00:38:12;99864.31;;;10.87;77.04
52745;BME280;38637;49.984;20.426;2023-06-05T00:40:38;99867.53;;;10.84;76.75
52745;BME280;38637;49.984;20.426;2023-06-05T00:43:03;99863.41;;;10.81;76.60
52745;BME280;38637;49.984;20.426;2023-06-05T00:45:30;99860.09;;;10.79;76.33
52745;BME280;38637;49.984;20.426;2023-06-05T00:47:56;99861.75;;;10.80;76.29
52745;BME280;38637;49.984;20.426;2023-06-05T00:50:21;99857.34;;;10.79;75.96
52745;BME280;38637;49.984;20.426;2023-06-05T00:52:46;99860.09;;;10.79;76.26
52745;BME280;38637;49.984;20.426;2023-06-05T00:55:12;99857.34;;;10.79;76.60
52745;BME280;38637;49.984;20.426;2023-06-05T00:57:38;99857.53;;;10.73;77.02
52745;BME280;38637;49.984;20.426;2023-06-05T01:00:04;99849.19;;;10.63;77.11
52745;BME280;38637;49.984;20.426;2023-06-05T01:02:31;99866.00;;;10.54;77.50
52745;BME280;38637;49.984;20.426;2023-06-05T01:04:59;99853.34;;;10.48;78.00
52745;BME280;38637;49.984;20.426;2023-06-05T01:07:24;99858.97;;;10.42;79.02
52745;BME280;38637;49.984;20.426;2023-06-05T01:09:49;99860.78;;;10.36;78.75
52745;BME280;38637;49.984;20.426;2023-06-05T01:14:44;99863.91;;;10.28;79.47
52745;BME280;38637;49.984;20.426;2023-06-05T01:17:10;99864.31;;;10.20;80.90
52745;BME280;38637;49.984;20.426;2023-06-05T01:19:36;99862.63;;;10.19;80.68
52745;BME280;38637;49.984;20.426;2023-06-05T01:22:04;99873.22;;;10.15;80.63
52745;BME280;38637;49.984;20.426;2023-06-05T01:24:30;99867.94;;;10.08;80.40
52745;BME280;38637;49.984;20.426;2023-06-05T01:31:58;99861.66;;;10.08;79.89
52745;BME280;38637;49.984;20.426;2023-06-05T01:34:28;99865.31;;;10.13;79.33
52745;BME280;38637;49.984;20.426;2023-06-05T01:36:53;99858.75;;;10.15;78.87
52745;BME280;38637;49.984;20.426;2023-06-05T01:39:20;99866.94;;;10.15;78.90
52745;BME280;38637;49.984;20.426;2023-06-05T01:41:46;99865.03;;;10.15;78.82
52745;BME280;38637;49.984;20.426;2023-06-05T01:44:13;99870.75;;;10.13;78.14
52745;BME280;38637;49.984;20.426;2023-06-05T01:46:40;99866.63;;;10.11;78.45
52745;BME280;38637;49.984;20.426;2023-06-05T01:49:06;99858.91;;;10.08;78.07
52745;BME280;38637;49.984;20.426;2023-06-05T01:51:31;99866.78;;;10.04;77.98
52745;BME280;38637;49.984;20.426;2023-06-05T01:53:57;99864.06;;;10.04;77.74
52745;BME280;38637;49.984;20.426;2023-06-05T01:56:22;99876.84;;;10.04;78.14
52745;BME280;38637;49.984;20.426;2023-06-05T01:58:49;99865.38;;;10.02;78.08
52745;BME280;38637;49.984;20.426;2023-06-05T02:01:14;99873.22;;;9.98;78.08
52745;BME280;38637;49.984;20.426;2023-06-05T02:03:41;99862.78;;;9.95;78.46
52745;BME280;38637;49.984;20.426;2023-06-05T02:06:12;99857.56;;;9.94;77.83
52745;BME280;38637;49.984;20.426;2023-06-05T02:08:37;99861.03;;;9.89;78.71
52745;BME280;38637;49.984;20.426;2023-06-05T02:11:02;99861.03;;;9.89;78.33
52745;BME280;38637;49.984;20.426;2023-06-05T02:13:28;99861.88;;;9.89;78.21
52745;BME280;38637;49.984;20.426;2023-06-05T02:15:53;99858.06;;;9.90;78.00
52745;BME280;38637;49.984;20.426;2023-06-05T02:18:21;99862.38;;;9.86;78.68
52745;BME280;38637;49.984;20.426;2023-06-05T02:20:52;99862.03;;;9.83;78.61
52745;BME280;38637;49.984;20.426;2023-06-05T02:23:18;99864.75;;;9.83;78.49
52745;BME280;38637;49.984;20.426;2023-06-05T02:25:43;99870.22;;;9.83;78.08
52745;BME280;38637;49.984;20.426;2023-06-05T02:28:08;99867.47;;;9.83;78.12
52745;BME280;38637;49.984;20.426;2023-06-05T02:30:33;99856.22;;;9.79;78.15
52745;BME280;38637;49.984;20.426;2023-06-05T02:32:58;99858.72;;;9.81;77.80
52745;BME280;38637;49.984;20.426;2023-06-05T02:35:25;99867.72;;;9.81;77.69
52745;BME280;38637;49.984;20.426;2023-06-05T02:37:51;99859.78;;;9.80;77.40
52745;BME280;38637;49.984;20.426;2023-06-05T02:40:16;99862.16;;;9.76;77.39
52745;BME280;38637;49.984;20.426;2023-06-05T02:42:42;99866.94;;;9.69;77.33
52745;BME280;38637;49.984;20.426;2023-06-05T02:45:07;99861.75;;;9.68;77.07
52745;BME280;38637;49.984;20.426;2023-06-05T02:47:33;99869.06;;;9.67;77.42
52745;BME280;38637;49.984;20.426;2023-06-05T02:49:58;99865.53;;;9.66;77.67
52745;BME280;38637;49.984;20.426;2023-06-05T02:52:24;99865.78;;;9.65;77.75
52745;BME280;38637;49.984;20.426;2023-06-05T02:55:00;99870.63;;;9.63;77.80
52745;BME280;38637;49.984;20.426;2023-06-05T02:57:27;99869.81;;;9.62;78.54
52745;BME280;38637;49.984;20.426;2023-06-05T02:59:52;99875.75;;;9.59;79.27
52745;BME280;38637;49.984;20.426;2023-06-05T03:02:18;99876.84;;;9.58;79.29
52745;BME280;38637;49.984;20.426;2023-06-05T03:04:43;99874.34;;;9.57;79.09
52745;BME280;38637;49.984;20.426;2023-06-05T03:07:08;99880.38;;;9.59;78.67
52745;BME280;38637;49.984;20.426;2023-06-05T03:09:35;99884.53;;;9.61;78.85
52745;BME280;38637;49.984;20.426;2023-06-05T03:12:00;99879.97;;;9.67;78.71
52745;BME280;38637;49.984;20.426;2023-06-05T03:14:26;99876.28;;;9.73;78.52
52745;BME280;38637;49.984;20.426;2023-06-05T03:16:56;99880.53;;;9.81;78.62
52745;BME280;38637;49.984;20.426;2023-06-05T03:19:23;99875.75;;;9.88;78.76
52745;BME280;38637;49.984;20.426;2023-06-05T03:21:48;99879.50;;;9.99;78.40
52745;BME280;38637;49.984;20.426;2023-06-05T03:24:15;99880.00;;;10.12;78.57
52745;BME280;38637;49.984;20.426;2023-06-05T03:26:41;99879.31;;;10.34;78.12
52745;BME280;38637;49.984;20.426;2023-06-05T03:29:06;99876.75;;;10.61;77.47
52745;BME280;38637;49.984;20.426;2023-06-05T03:31:32;99880.94;;;10.86;76.21
52745;BME280;38637;49.984;20.426;2023-06-05T03:33:57;99872.25;;;11.11;75.52
52745;BME280;38637;49.984;20.426;2023-06-05T03:36:24;99876.91;;;11.32;74.81
52745;BME280;38637;49.984;20.426;2023-06-05T03:38:50;99884.03;;;11.55;74.60
52745;BME280;38637;49.984;20.426;2023-06-05T03:41:15;99874.41;;;11.74;73.52
52745;BME280;38637;49.984;20.426;2023-06-05T03:43:40;99882.56;;;11.91;72.87
52745;BME280;38637;49.984;20.426;2023-06-05T03:46:06;99875.06;;;12.09;72.12
52745;BME280;38637;49.984;20.426;2023-06-05T03:48:32;99873.31;;;12.25;71.60
52745;BME280;38637;49.984;20.426;2023-06-05T03:50:57;99878.06;;;12.34;70.82
52745;BME280;38637;49.984;20.426;2023-06-05T03:53:23;99879.81;;;12.51;70.41
52745;BME280;38637;49.984;20.426;2023-06-05T03:55:48;99878.25;;;12.60;69.74
52745;BME280;38637;49.984;20.426;2023-06-05T03:58:17;99872.31;;;12.73;69.45
52745;BME280;38637;49.984;20.426;2023-06-05T04:00:45;99875.19;;;12.94;69.12
52745;BME280;38637;49.984;20.426;2023-06-05T04:03:11;99881.56;;;13.04;68.56
52745;BME280;38637;49.984;20.426;2023-06-05T04:05:37;99874.81;;;13.22;68.44
52745;BME280;38637;49.984;20.426;2023-06-05T04:08:03;99878.75;;;13.42;68.16
52745;BME280;38637;49.984;20.426;2023-06-05T04:10:28;99884.88;;;13.59;67.93
52745;BME280;38637;49.984;20.426;2023-06-05T04:12:54;99880.25;;;13.75;67.87
52745;BME280;38637;49.984;20.426;2023-06-05T04:15:20;99878.63;;;13.89;67.90
52745;BME280;38637;49.984;20.426;2023-06-05T04:17:45;99882.50;;;14.03;67.80
52745;BME280;38637;49.984;20.426;2023-06-05T04:20:10;99879.50;;;14.15;67.42
52745;BME280;38637;49.984;20.426;2023-06-05T04:22:39;99882.81;;;14.28;66.79
52745;BME280;38637;49.984;20.426;2023-06-05T04:25:04;99883.09;;;14.41;66.42
52745;BME280;38637;49.984;20.426;2023-06-05T04:27:30;99880.66;;;14.55;65.61
52745;BME280;38637;49.984;20.426;2023-06-05T04:29:56;99877.34;;;14.68;65.69
52745;BME280;38637;49.984;20.426;2023-06-05T04:32:21;99874.31;;;14.80;65.29
52745;BME280;38637;49.984;20.426;2023-06-05T04:34:46;99875.41;;;14.89;65.30
52745;BME280;38637;49.984;20.426;2023-06-05T04:37:12;99873.47;;;15.00;65.65
52745;BME280;38637;49.984;20.426;2023-06-05T04:39:37;99876.44;;;15.14;65.56
52745;BME280;38637;49.984;20.426;2023-06-05T04:42:02;99875.31;;;15.25;65.72
52745;BME280;38637;49.984;20.426;2023-06-05T04:44:27;99875.00;;;15.32;65.50
52745;BME280;38637;49.984;20.426;2023-06-05T04:46:54;99877.75;;;15.37;65.23
52745;BME280;38637;49.984;20.426;2023-06-05T04:49:21;99875.22;;;15.46;64.29
52745;BME280;38637;49.984;20.426;2023-06-05T04:51:47;99874.94;;;15.47;62.15
52745;BME280;38637;49.984;20.426;2023-06-05T04:54:13;99863.38;;;15.45;61.45
52745;BME280;38637;49.984;20.426;2023-06-05T04:56:38;99865.00;;;15.51;62.14
52745;BME280;38637;49.984;20.426;2023-06-05T04:59:04;99874.06;;;15.67;62.55
52745;BME280;38637;49.984;20.426;2023-06-05T05:01:29;99874.28;;;15.76;63.05
52745;BME280;38637;49.984;20.426;2023-06-05T05:03:55;99865.44;;;15.84;63.04
52745;BME280;38637;49.984;20.426;2023-06-05T05:06:20;99870.31;;;15.97;62.80
52745;BME280;38637;49.984;20.426;2023-06-05T05:08:46;99864.44;;;16.14;62.95
52745;BME280;38637;49.984;20.426;2023-06-05T05:11:13;99872.56;;;16.29;61.89
52745;BME280;38637;49.984;20.426;2023-06-05T05:13:38;99869.78;;;16.35;60.88
52745;BME280;38637;49.984;20.426;2023-06-05T05:16:04;99874.16;;;16.41;60.24
52745;BME280;38637;49.984;20.426;2023-06-05T05:18:29;99874.66;;;16.43;60.74
52745;BME280;38637;49.984;20.426;2023-06-05T05:20:55;99877.09;;;16.49;61.04
52745;BME280;38637;49.984;20.426;2023-06-05T05:23:20;99879.00;;;16.54;60.61
52745;BME280;38637;49.984;20.426;2023-06-05T05:25:46;99878.09;;;16.64;60.79
52745;BME280;38637;49.984;20.426;2023-06-05T05:28:11;99877.47;;;16.72;60.94
52745;BME280;38637;49.984;20.426;2023-06-05T05:30:36;99875.78;;;16.76;60.21
52745;BME280;38637;49.984;20.426;2023-06-05T05:33:02;99876.59;;;16.76;59.59
52745;BME280;38637;49.984;20.426;2023-06-05T05:35:27;99864.19;;;16.79;60.31
52745;BME280;38637;49.984;20.426;2023-06-05T05:37:52;99867.25;;;16.77;59.47
52745;BME280;38637;49.984;20.426;2023-06-05T05:40:18;99871.06;;;16.82;60.32
52745;BME280;38637;49.984;20.426;2023-06-05T05:42:43;99873.00;;;16.81;59.21
52745;BME280;38637;49.984;20.426;2023-06-05T05:45:08;99872.19;;;16.81;59.74
52745;BME280;38637;49.984;20.426;2023-06-05T05:47:34;99873.13;;;16.95;60.17
52745;BME280;38637;49.984;20.426;2023-06-05T05:49:59;99874.44;;;17.03;59.53
52745;BME280;38637;49.984;20.426;2023-06-05T05:52:24;99873.25;;;17.09;59.86
52745;BME280;38637;49.984;20.426;2023-06-05T05:54:50;99879.88;;;17.08;59.56
52745;BME280;38637;49.984;20.426;2023-06-05T05:57:16;99871.88;;;17.11;59.60
52745;BME280;38637;49.984;20.426;2023-06-05T05:59:42;99875.44;;;17.12;59.78
52745;BME280;38637;49.984;20.426;2023-06-05T06:02:09;99862.22;;;17.09;59.73
52745;BME280;38637;49.984;20.426;2023-06-05T06:04:35;99874.94;;;17.05;59.27
52745;BME280;38637;49.984;20.426;2023-06-05T06:07:00;99872.78;;;17.02;60.30
52745;BME280;38637;49.984;20.426;2023-06-05T06:09:26;99878.88;;;16.98;60.73
52745;BME280;38637;49.984;20.426;2023-06-05T06:11:51;99874.94;;;17.05;60.11
52745;BME280;38637;49.984;20.426;2023-06-05T06:14:20;99868.53;;;17.14;60.30
52745;BME280;38637;49.984;20.426;2023-06-05T06:16:45;99879.78;;;17.18;60.17
52745;BME280;38637;49.984;20.426;2023-06-05T06:19:10;99878.03;;;17.27;59.98
52745;BME280;38637;49.984;20.426;2023-06-05T06:21:39;99872.03;;;17.20;60.03
52745;BME280;38637;49.984;20.426;2023-06-05T06:24:05;99874.97;;;17.29;60.32
52745;BME280;38637;49.984;20.426;2023-06-05T06:26:30;99871.25;;;17.38;60.38
52745;BME280;38637;49.984;20.426;2023-06-05T06:28:56;99882.28;;;17.38;60.33
52745;BME280;38637;49.984;20.426;2023-06-05T06:31:22;99870.22;;;17.34;60.80
52745;BME280;38637;49.984;20.426;2023-06-05T06:33:47;99871.38;;;17.28;61.16
52745;BME280;38637;49.984;20.426;2023-06-05T06:36:13;99867.69;;;17.38;60.59
52745;BME280;38637;49.984;20.426;2023-06-05T06:38:38;99866.81;;;17.42;60.38
52745;BME280;38637;49.984;20.426;2023-06-05T06:41:03;99871.50;;;17.42;60.48
52745;BME280;38637;49.984;20.426;2023-06-05T06:43:29;99869.56;;;17.42;61.28
52745;BME280;38637;49.984;20.426;2023-06-05T06:45:54;99883.59;;;17.46;60.79
52745;BME280;38637;49.984;20.426;2023-06-05T06:48:20;99869.44;;;17.53;60.60
52745;BME280;38637;49.984;20.426;2023-06-05T06:50:45;99867.88;;;17.65;60.69
52745;BME280;38637;49.984;20.426;2023-06-05T06:53:11;99870.53;;;17.76;60.97
52745;BME280;38637;49.984;20.426;2023-06-05T06:55:36;99868.84;;;17.80;61.51
52745;BME280;38637;49.984;20.426;2023-06-05T06:58:01;99877.78;;;17.90;61.32
52745;BME280;38637;49.984;20.426;2023-06-05T07:00:27;99865.53;;;17.97;61.19
52745;BME280;38637;49.984;20.426;2023-06-05T07:02:52;99868.78;;;18.04;59.42
52745;BME280;38637;49.984;20.426;2023-06-05T07:05:17;99867.47;;;18.15;60.10
52745;BME280;38637;49.984;20.426;2023-06-05T07:07:44;99870.91;;;18.26;59.92
52745;BME280;38637;49.984;20.426;2023-06-05T07:10:10;99873.28;;;18.32;59.47
52745;BME280;38637;49.984;20.426;2023-06-05T07:12:35;99867.69;;;18.37;59.02
52745;BME280;38637;49.984;20.426;2023-06-05T07:15:00;99866.16;;;18.45;58.92
52745;BME280;38637;49.984;20.426;2023-06-05T07:17:25;99869.25;;;18.44;58.28
52745;BME280;38637;49.984;20.426;2023-06-05T07:19:54;99865.81;;;18.52;58.41
52745;BME280;38637;49.984;20.426;2023-06-05T07:22:19;99867.25;;;18.63;59.12
52745;BME280;38637;49.984;20.426;2023-06-05T07:24:45;99862.19;;;18.70;57.66
52745;BME280;38637;49.984;20.426;2023-06-05T07:27:10;99862.63;;;18.77;57.36
52745;BME280;38637;49.984;20.426;2023-06-05T07:29:35;99859.97;;;18.86;56.31
52745;BME280;38637;49.984;20.426;2023-06-05T07:32:01;99862.03;;;18.94;56.40
52745;BME280;38637;49.984;20.426;2023-06-05T07:34:30;99867.28;;;18.96;56.97
52745;BME280;38637;49.984;20.426;2023-06-05T07:36:55;99875.69;;;19.04;55.15
52745;BME280;38637;49.984;20.426;2023-06-05T07:39:21;99869.66;;;19.16;55.87
52745;BME280;38637;49.984;20.426;2023-06-05T07:41:47;99861.44;;;19.25;55.35
52745;BME280;38637;49.984;20.426;2023-06-05T07:44:15;99871.00;;;19.33;55.02
52745;BME280;38637;49.984;20.426;2023-06-05T07:46:41;99872.19;;;19.40;53.58
52745;BME280;38637;49.984;20.426;2023-06-05T07:49:06;99857.97;;;19.47;53.35
52745;BME280;38637;49.984;20.426;2023-06-05T07:51:32;99864.41;;;19.56;52.45
52745;BME280;38637;49.984;20.426;2023-06-05T07:54:01;99864.81;;;19.63;53.17
52745;BME280;38637;49.984;20.426;2023-06-05T07:56:26;99860.94;;;19.64;53.04
52745;BME280;38637;49.984;20.426;2023-06-05T07:58:51;99852.53;;;19.69;53.45
52745;BME280;38637;49.984;20.426;2023-06-05T08:01:17;99850.13;;;19.77;51.91
52745;BME280;38637;49.984;20.426;2023-06-05T08:03:42;99809.22;;;19.60;52.79
52745;BME280;38637;49.984;20.426;2023-06-05T08:06:09;99858.53;;;19.85;53.26
52745;BME280;38637;49.984;20.426;2023-06-05T08:08:34;99844.75;;;19.94;51.57
52745;BME280;38637;49.984;20.426;2023-06-05T08:10:59;99848.72;;;20.02;50.05
52745;BME280;38637;49.984;20.426;2023-06-05T08:13:25;99838.34;;;20.07;50.59
52745;BME280;38637;49.984;20.426;2023-06-05T08:15:51;99838.53;;;20.11;48.94
52745;BME280;38637;49.984;20.426;2023-06-05T08:18:16;99830.44;;;20.14;47.90
52745;BME280;38637;49.984;20.426;2023-06-05T08:20:41;99836.88;;;20.24;48.13
52745;BME280;38637;49.984;20.426;2023-06-05T08:23:07;99824.50;;;20.30;48.39
52745;BME280;38637;49.984;20.426;2023-06-05T08:25:32;99828.91;;;20.31;46.47
52745;BME280;38637;49.984;20.426;2023-06-05T08:27:57;99835.84;;;20.42;46.79
52745;BME280;38637;49.984;20.426;2023-06-05T08:30:22;99833.44;;;20.49;45.42
52745;BME280;38637;49.984;20.426;2023-06-05T08:32:48;99835.69;;;20.61;44.46
52745;BME280;38637;49.984;20.426;2023-06-05T08:35:13;99835.03;;;20.64;45.14
52745;BME280;38637;49.984;20.426;2023-06-05T08:37:38;99838.50;;;20.70;46.04
52745;BME280;38637;49.984;20.426;2023-06-05T08:40:04;99838.34;;;20.75;46.20
52745;BME280;38637;49.984;20.426;2023-06-05T08:42:36;99838.88;;;20.77;44.36
52745;BME280;38637;49.984;20.426;2023-06-05T08:45:02;99839.69;;;20.77;43.60
52745;BME280;38637;49.984;20.426;2023-06-05T08:47:28;99846.03;;;20.78;42.70
52745;BME280;38637;49.984;20.426;2023-06-05T08:49:55;99847.69;;;20.79;41.81
52745;BME280;38637;49.984;20.426;2023-06-05T08:52:22;99836.78;;;20.82;43.37
52745;BME280;38637;49.984;20.426;2023-06-05T08:54:47;99846.09;;;20.86;43.18
52745;BME280;38637;49.984;20.426;2023-06-05T08:57:12;99831.72;;;20.84;43.26
52745;BME280;38637;49.984;20.426;2023-06-05T08:59:37;99840.41;;;20.92;43.64
52745;BME280;38637;49.984;20.426;2023-06-05T09:02:03;99831.63;;;20.98;42.06
52745;BME280;38637;49.984;20.426;2023-06-05T09:04:29;99836.53;;;21.01;41.74
52745;BME280;38637;49.984;20.426;2023-06-05T09:06:57;99828.38;;;21.05;42.00
52745;BME280;38637;49.984;20.426;2023-06-05T09:09:23;99834.94;;;21.09;41.19
52745;BME280;38637;49.984;20.426;2023-06-05T09:14:27;99829.41;;;21.18;41.31
52745;BME280;38637;49.984;20.426;2023-06-05T09:16:53;99817.47;;;21.17;40.06
52745;BME280;38637;49.984;20.426;2023-06-05T09:19:18;99825.03;;;21.25;39.95
52745;BME280;38637;49.984;20.426;2023-06-05T09:21:53;99817.50;;;21.26;38.88
52745;BME280;38637;49.984;20.426;2023-06-05T09:24:20;99819.81;;;21.32;40.30
52745;BME280;38637;49.984;20.426;2023-06-05T09:31:50;99815.31;;;21.45;39.90
52745;BME280;38637;49.984;20.426;2023-06-05T09:34:22;99812.72;;;21.49;40.24
52745;BME280;38637;49.984;20.426;2023-06-05T09:36:47;99822.34;;;21.51;40.29
52745;BME280;38637;49.984;20.426;2023-06-05T09:39:16;99818.44;;;21.52;40.34
52745;BME280;38637;49.984;20.426;2023-06-05T09:41:46;99813.34;;;21.54;40.22
52745;BME280;38637;49.984;20.426;2023-06-05T09:44:11;99807.16;;;21.57;39.85
52745;BME280;38637;49.984;20.426;2023-06-05T09:49:29;99806.88;;;21.68;39.35
52745;BME280;38637;49.984;20.426;2023-06-05T09:51:55;99804.75;;;21.73;38.92
52745;BME280;38637;49.984;20.426;2023-06-05T09:54:20;99796.88;;;21.75;39.84
52745;BME280;38637;49.984;20.426;2023-06-05T09:56:47;99804.56;;;21.78;39.50
52745;BME280;38637;49.984;20.426;2023-06-05T09:59:20;99797.03;;;21.79;39.87
52745;BME280;38637;49.984;20.426;2023-06-05T10:01:46;99793.94;;;21.80;40.18
52745;BME280;38637;49.984;20.426;2023-06-05T10:04:13;99791.16;;;21.80;40.31
52745;BME280;38637;49.984;20.426;2023-06-05T10:06:40;99782.31;;;21.78;41.53
52745;BME280;38637;49.984;20.426;2023-06-05T10:09:06;99783.50;;;21.86;41.64
52745;BME280;38637;49.984;20.426;2023-06-05T10:11:32;99777.94;;;21.95;41.61
52745;BME280;38637;49.984;20.426;2023-06-05T10:13:58;99785.28;;;21.99;41.58
52745;BME280;38637;49.984;20.426;2023-06-05T10:16:25;99779.56;;;22.05;40.58
52745;BME280;38637;49.984;20.426;2023-06-05T10:18:50;99774.97;;;22.09;40.71
52745;BME280;38637;49.984;20.426;2023-06-05T10:21:15;99771.22;;;22.13;40.92
52745;BME280;38637;49.984;20.426;2023-06-05T10:23:56;99775.50;;;22.19;41.92
52745;BME280;38637;49.984;20.426;2023-06-05T10:31:45;99769.72;;;22.33;39.50
52745;BME280;38637;49.984;20.426;2023-06-05T10:34:12;99767.09;;;22.37;40.24
52745;BME280;38637;49.984;20.426;2023-06-05T10:39:10;99764.59;;;22.53;40.96
52745;BME280;38637;49.984;20.426;2023-06-05T10:41:37;99765.59;;;22.57;40.04
52745;BME280;38637;49.984;20.426;2023-06-05T10:44:02;99768.81;;;22.59;39.22
52745;BME280;38637;49.984;20.426;2023-06-05T10:46:34;99766.84;;;22.68;40.93
52745;BME280;38637;49.984;20.426;2023-06-05T10:49:06;99765.84;;;22.73;39.45
52745;BME280;38637;49.984;20.426;2023-06-05T10:51:48;99768.78;;;22.76;41.04
52745;BME280;38637;49.984;20.426;2023-06-05T10:59:22;99760.22;;;22.90;40.18
52745;BME280;38637;49.984;20.426;2023-06-05T11:05:16;99765.28;;;22.97;38.99
52745;BME280;38637;49.984;20.426;2023-06-05T11:07:17;99758.91;;;22.96;40.28
52745;BME280;38637;49.984;20.426;2023-06-05T11:12:26;99747.91;;;23.00;39.64
52745;BME280;38637;49.984;20.426;2023-06-05T11:14:51;99750.34;;;22.92;38.39
52745;BME280;38637;49.984;20.426;2023-06-05T11:17:29;99751.69;;;22.95;39.22
52745;BME280;38637;49.984;20.426;2023-06-05T11:19:55;99757.22;;;23.04;37.69
52745;BME280;38637;49.984;20.426;2023-06-05T11:22:20;99754.72;;;23.11;38.72
52745;BME280;38637;49.984;20.426;2023-06-05T11:24:46;99754.03;;;23.14;37.35
52745;BME280;38637;49.984;20.426;2023-06-05T11:27:41;99741.91;;;23.19;38.41
52745;BME280;38637;49.984;20.426;2023-06-05T11:30:10;99742.03;;;23.22;39.22
52745;BME280;38637;49.984;20.426;2023-06-05T11:32:36;99751.03;;;23.28;39.48
52745;BME280;38637;49.984;20.426;2023-06-05T11:35:01;99750.22;;;23.27;38.72
52745;BME280;38637;49.984;20.426;2023-06-05T11:37:27;99742.97;;;23.26;38.28
52745;BME280;38637;49.984;20.426;2023-06-05T11:39:52;99743.16;;;23.30;37.84
52745;BME280;38637;49.984;20.426;2023-06-05T11:42:21;99739.00;;;23.36;37.75
52745;BME280;38637;49.984;20.426;2023-06-05T11:44:47;99736.91;;;23.33;37.40
52745;BME280;38637;49.984;20.426;2023-06-05T11:47:22;99730.78;;;23.39;37.75
52745;BME280;38637;49.984;20.426;2023-06-05T11:49:48;99727.59;;;23.50;38.58
52745;BME280;38637;49.984;20.426;2023-06-05T11:52:22;99734.94;;;23.54;38.69
52745;BME280;38637;49.984;20.426;2023-06-05T11:54:47;99736.88;;;23.54;38.29
52745;BME280;38637;49.984;20.426;2023-06-05T11:57:38;99729.56;;;23.49;38.28
52745;BME280;38637;49.984;20.426;2023-06-05T12:00:04;99726.50;;;23.42;38.66
52745;BME280;38637;49.984;20.426;2023-06-05T12:02:31;99728.63;;;23.45;38.38
52745;BME280;38637;49.984;20.426;2023-06-05T12:04:56;99724.47;;;23.51;38.43
52745;BME280;38637;49.984;20.426;2023-06-05T12:07:28;99726.72;;;23.58;39.05
52745;BME280;38637;49.984;20.426;2023-06-05T12:09:53;99717.19;;;23.59;38.37
52745;BME280;38637;49.984;20.426;2023-06-05T12:12:18;99715.22;;;23.59;38.66
52745;BME280;38637;49.984;20.426;2023-06-05T12:14:45;99712.09;;;23.61;39.19
52745;BME280;38637;49.984;20.426;2023-06-05T12:17:10;99705.47;;;23.66;39.62
52745;BME280;38637;49.984;20.426;2023-06-05T12:19:35;99705.78;;;23.73;39.42
52745;BME280;38637;49.984;20.426;2023-06-05T12:22:01;99702.31;;;23.76;39.32
52745;BME280;38637;49.984;20.426;2023-06-05T12:24:27;99704.88;;;23.81;38.85
52745;BME280;38637;49.984;20.426;2023-06-05T12:29:22;99712.28;;;23.98;38.41
52745;BME280;38637;49.984;20.426;2023-06-05T12:31:47;99707.31;;;24.03;37.67
52745;BME280;38637;49.984;20.426;2023-06-05T12:34:13;99705.81;;;24.06;38.48
52745;BME280;38637;49.984;20.426;2023-06-05T12:36:40;99700.56;;;24.04;37.11
52745;BME280;38637;49.984;20.426;2023-06-05T12:39:06;99693.00;;;24.05;37.94
52745;BME280;38637;49.984;20.426;2023-06-05T12:41:32;99698.59;;;24.05;37.77
52745;BME280;38637;49.984;20.426;2023-06-05T12:43:59;99699.16;;;23.98;37.36
52745;BME280;38637;49.984;20.426;2023-06-05T12:46:25;99701.28;;;23.80;36.79
52745;BME280;38637;49.984;20.426;2023-06-05T12:48:50;99706.31;;;23.87;36.86
52745;BME280;38637;49.984;20.426;2023-06-05T12:51:15;99687.19;;;23.98;37.10
52745;BME280;38637;49.984;20.426;2023-06-05T12:53:41;99690.22;;;24.05;37.05
52745;BME280;38637;49.984;20.426;2023-06-05T12:56:06;99682.84;;;24.21;36.73
52745;BME280;38637;49.984;20.426;2023-06-05T12:58:32;99689.22;;;24.22;37.53
52745;BME280;38637;49.984;20.426;2023-06-05T13:00:57;99676.19;;;24.14;36.74
52745;BME280;38637;49.984;20.426;2023-06-05T13:03:22;99673.38;;;24.14;37.07
52745;BME280;38637;49.984;20.426;2023-06-05T13:05:48;99671.44;;;24.26;37.30
52745;BME280;38637;49.984;20.426;2023-06-05T13:08:13;99663.69;;;24.44;37.61
52745;BME280;38637;49.984;20.426;2023-06-05T13:10:38;99670.47;;;24.56;37.17
52745;BME280;38637;49.984;20.426;2023-06-05T13:13:04;99667.91;;;24.63;36.84
52745;BME280;38637;49.984;20.426;2023-06-05T13:15:29;99669.06;;;24.62;35.82
52745;BME280;38637;49.984;20.426;2023-06-05T13:17:55;99659.41;;;24.59;36.03
52745;BME280;38637;49.984;20.426;2023-06-05T13:20:20;99662.91;;;24.56;35.71
52745;BME280;38637;49.984;20.426;2023-06-05T13:22:45;99649.63;;;24.53;36.00
52745;BME280;38637;49.984;20.426;2023-06-05T13:25:10;99646.47;;;24.54;36.42